Time;durP1;ratioP1;P1;durP2;ratioP2;P2;SDS_P1;SDS_P2;PMS_P1;PMS_P2;Temp;Humidity;BMP_temperature;BMP_pressure;BME280_temperature;BME280_humidity;BME280_pressure;Samples;Min_cycle;Max_cycle;Signal;HPM_P1;HPM_P2
2022/05/17 00:01:16;;;;;;;3.72;2.85;;;15.80;96.10;;;;;;4146196;28;20069;-74
2022/05/17 00:03:18;;;;;;;4.65;3.40;;;15.80;96.10;;;;;;4150186;28;20858;-74
2022/05/17 00:05:20;;;;;;;4.05;2.88;;;15.80;96.30;;;;;;4151201;28;20077;-74
2022/05/17 00:07:22;;;;;;;4.70;3.45;;;15.70;96.60;;;;;;4150208;28;20754;-74
2022/05/17 00:09:24;;;;;;;3.70;2.95;;;15.70;96.50;;;;;;4151370;28;20137;-74
2022/05/17 00:11:28;;;;;;;4.28;2.75;;;15.70;96.80;;;;;;4149588;28;20054;-74
2022/05/17 00:13:29;;;;;;;6.63;2.78;;;15.70;96.50;;;;;;4151862;28;20550;-74
2022/05/17 00:15:32;;;;;;;3.10;2.80;;;15.60;96.60;;;;;;4151887;28;20058;-75
2022/05/17 00:17:34;;;;;;;3.85;2.80;;;15.70;96.50;;;;;;4143909;28;20054;-74
2022/05/17 00:19:35;;;;;;;3.22;2.50;;;15.70;96.70;;;;;;4149189;28;20058;-74
2022/05/17 00:21:38;;;;;;;4.78;2.80;;;15.70;96.70;;;;;;4150278;28;20066;-74
2022/05/17 00:23:41;;;;;;;5.22;2.13;;;15.60;96.60;;;;;;4152021;28;20046;-75
2022/05/17 00:25:47;;;;;;;2.05;1.80;;;15.60;96.60;;;;;;4148699;28;20085;-74
2022/05/17 00:27:49;;;;;;;4.63;2.47;;;15.60;96.70;;;;;;4154116;28;20058;-74
2022/05/17 00:29:50;;;;;;;2.78;1.83;;;15.60;96.80;;;;;;4151967;28;20069;-74
2022/05/17 00:31:52;;;;;;;3.20;2.35;;;15.60;96.60;;;;;;4147393;28;20076;-74
2022/05/17 00:33:54;;;;;;;5.07;3.20;;;15.70;96.70;;;;;;4147181;28;20081;-74
2022/05/17 00:35:55;;;;;;;4.43;2.20;;;15.60;96.40;;;;;;4144398;28;20154;-74
2022/05/17 00:37:57;;;;;;;5.00;2.72;;;15.60;96.60;;;;;;4145910;28;20896;-74
2022/05/17 00:39:59;;;;;;;7.65;3.53;;;15.50;96.90;;;;;;4150852;28;20097;-74
2022/05/17 00:42:00;;;;;;;10.68;3.80;;;15.50;97.10;;;;;;4149953;28;20062;-74
2022/05/17 00:46:30;;;;;;;6.38;3.63;;;15.50;97.30;;;;;;4154353;28;20069;-74
2022/05/17 00:48:32;;;;;;;9.20;5.03;;;15.40;97.60;;;;;;4143552;28;20148;-74
2022/05/17 00:50:37;;;;;;;4.80;4.15;;;15.50;97.50;;;;;;4156086;28;20170;-74
2022/05/17 00:52:45;;;;;;;5.65;3.42;;;15.50;97.40;;;;;;4145833;28;20066;-74
2022/05/17 00:54:49;;;;;;;5.72;3.53;;;15.50;97.70;;;;;;4147951;28;20562;-74
2022/05/17 00:57:06;;;;;;;3.38;3.00;;;15.40;97.60;;;;;;4145198;28;21406;-74
2022/05/17 00:59:09;;;;;;;5.00;3.17;;;15.40;97.90;;;;;;4142222;28;20062;-74
2022/05/17 01:01:15;;;;;;;6.88;3.47;;;15.40;97.90;;;;;;4147018;28;20068;-74
2022/05/17 01:03:19;;;;;;;5.68;2.67;;;15.40;97.70;;;;;;4146122;28;20062;-74
2022/05/17 01:05:23;;;;;;;3.22;2.28;;;15.30;98.10;;;;;;4147894;28;20123;-74
2022/05/17 01:07:31;;;;;;;5.03;2.65;;;15.30;98.70;;;;;;4144359;28;20183;-74
2022/05/17 01:09:32;;;;;;;5.50;3.53;;;15.30;98.50;;;;;;4147560;28;20059;-74
2022/05/17 01:11:34;;;;;;;3.97;2.25;;;15.30;98.40;;;;;;4143496;28;20062;-74
2022/05/17 01:15:58;;;;;;;3.22;2.00;;;15.20;98.60;;;;;;4147016;28;20077;-74
2022/05/17 01:18:00;;;;;;;3.60;2.47;;;15.20;99.00;;;;;;4151603;28;20077;-74
2022/05/17 01:20:08;;;;;;;2.67;2.00;;;15.10;99.10;;;;;;4149296;28;20058;-74
2022/05/17 01:22:10;;;;;;;7.88;2.65;;;15.10;99.20;;;;;;4147267;28;20069;-74
2022/05/17 01:24:12;;;;;;;1.95;1.77;;;15.10;99.40;;;;;;4148819;28;20648;-74
2022/05/17 01:26:18;;;;;;;3.72;2.08;;;15.00;99.70;;;;;;4169054;22;20046;-75
2022/05/17 01:28:24;;;;;;;2.20;2.00;;;15.00;99.80;;;;;;4170241;28;20152;-73
2022/05/17 01:30:28;;;;;;;3.83;2.13;;;15.00;99.80;;;;;;4169612;28;20062;-73
2022/05/17 01:32:32;;;;;;;3.40;1.60;;;14.90;99.90;;;;;;4174398;28;20863;-73
2022/05/17 01:34:34;;;;;;;3.53;2.00;;;14.80;99.90;;;;;;4172157;28;20841;-73
2022/05/17 01:36:36;;;;;;;4.60;2.35;;;14.80;99.90;;;;;;4171379;28;20867;-73
2022/05/17 01:38:38;;;;;;;2.53;1.67;;;14.80;99.90;;;;;;4175216;28;20058;-73
2022/05/17 01:40:41;;;;;;;4.53;1.80;;;14.80;99.90;;;;;;4173817;28;20061;-74
2022/05/17 01:42:42;;;;;;;4.82;2.03;;;14.80;99.90;;;;;;4175501;28;21819;-73
2022/05/17 01:44:45;;;;;;;2.25;1.73;;;14.70;99.90;;;;;;4171509;28;20054;-73
2022/05/17 01:46:46;;;;;;;1.92;1.73;;;14.80;99.90;;;;;;4172444;28;20140;-73
2022/05/17 01:48:48;;;;;;;2.53;2.17;;;14.70;99.90;;;;;;4173231;28;20129;-74
2022/05/17 01:50:50;;;;;;;3.05;2.22;;;14.70;99.90;;;;;;4170913;28;20057;-74
2022/05/17 01:52:52;;;;;;;5.57;2.05;;;14.60;99.90;;;;;;4174237;28;20808;-74
2022/05/17 01:54:54;;;;;;;2.80;2.13;;;14.50;99.90;;;;;;4174442;28;20065;-73
2022/05/17 01:56:55;;;;;;;4.68;1.95;;;14.50;99.90;;;;;;4171417;28;20071;-73
2022/05/17 01:58:57;;;;;;;5.00;2.10;;;14.50;99.90;;;;;;4170605;28;20064;-74
2022/05/17 02:00:59;;;;;;;3.92;2.10;;;14.50;99.90;;;;;;4174315;28;20152;-73
2022/05/17 02:03:01;;;;;;;2.72;2.25;;;14.50;99.90;;;;;;4176315;28;20049;-73
2022/05/17 02:05:07;;;;;;;3.22;2.60;;;14.50;99.90;;;;;;4170343;28;20063;-74
2022/05/17 02:07:09;;;;;;;2.75;2.45;;;14.50;99.90;;;;;;4168461;28;20176;-74
2022/05/17 02:09:11;;;;;;;4.75;2.30;;;14.50;99.90;;;;;;4169669;28;20116;-74
2022/05/17 02:11:12;;;;;;;3.45;2.05;;;14.50;99.90;;;;;;4169892;28;20791;-73
2022/05/17 02:13:17;;;;;;;6.65;2.90;;;14.50;99.90;;;;;;4173273;28;20064;-74
2022/05/17 02:15:19;;;;;;;4.93;2.25;;;14.50;99.90;;;;;;4167504;28;20126;-73
2022/05/17 02:17:22;;;;;;;2.53;2.33;;;14.50;99.90;;;;;;4165294;28;20153;-73
2022/05/17 02:19:24;;;;;;;5.40;2.53;;;14.50;99.90;;;;;;4165907;28;20150;-73
2022/05/17 02:21:26;;;;;;;4.32;2.47;;;14.50;99.90;;;;;;4179421;28;20061;-73
2022/05/17 02:23:27;;;;;;;3.28;1.95;;;14.50;99.90;;;;;;4167782;28;20097;-73
2022/05/17 02:25:29;;;;;;;4.93;2.38;;;14.40;99.90;;;;;;4171991;28;20061;-74
2022/05/17 02:27:31;;;;;;;2.88;1.67;;;14.40;99.90;;;;;;4165854;28;20063;-74
2022/05/17 02:29:32;;;;;;;2.22;2.03;;;14.40;99.90;;;;;;4167341;28;20064;-73
2022/05/17 02:31:35;;;;;;;3.05;2.28;;;14.40;99.90;;;;;;4166371;28;20054;-74
2022/05/17 02:33:36;;;;;;;2.40;2.20;;;14.40;99.90;;;;;;4169583;28;20173;-73
2022/05/17 02:35:39;;;;;;;3.13;2.30;;;14.40;99.90;;;;;;4174093;28;20054;-73
2022/05/17 02:37:41;;;;;;;2.20;1.95;;;14.30;99.90;;;;;;4174299;28;20657;-74
2022/05/17 02:39:45;;;;;;;2.35;2.13;;;14.30;99.90;;;;;;4167458;28;20791;-74
2022/05/17 02:41:46;;;;;;;4.03;3.10;;;14.20;99.90;;;;;;4171630;28;20064;-73
2022/05/17 02:43:48;;;;;;;3.90;2.67;;;14.10;99.90;;;;;;4170703;28;20064;-73
2022/05/17 02:45:51;;;;;;;4.13;2.15;;;14.10;99.90;;;;;;4172132;28;20058;-74
2022/05/17 02:47:52;;;;;;;8.48;2.80;;;14.10;99.90;;;;;;4169687;28;20632;-74
2022/05/17 02:49:54;;;;;;;3.08;2.50;;;14.10;99.90;;;;;;4170647;28;20868;-73
2022/05/17 02:52:00;;;;;;;2.80;2.28;;;14.10;99.90;;;;;;4170125;28;20770;-74
2022/05/17 02:54:05;;;;;;;3.05;2.30;;;14.10;99.90;;;;;;4171772;28;20880;-73
2022/05/17 02:56:07;;;;;;;3.15;2.53;;;14.00;99.90;;;;;;4172933;28;20062;-74
2022/05/17 02:58:09;;;;;;;2.95;2.45;;;13.90;99.90;;;;;;4173716;28;20061;-73
2022/05/17 03:00:14;;;;;;;2.50;2.30;;;14.00;99.90;;;;;;4176286;28;20160;-73
2022/05/17 03:02:16;;;;;;;2.92;2.53;;;13.90;99.90;;;;;;4175806;28;20730;-73
2022/05/17 03:04:18;;;;;;;2.20;2.00;;;13.90;99.90;;;;;;4174875;28;20057;-74
2022/05/17 03:06:20;;;;;;;2.42;2.22;;;13.90;99.90;;;;;;4175592;28;20896;-73
2022/05/17 03:08:22;;;;;;;2.92;2.72;;;13.80;99.90;;;;;;4173988;28;20067;-74
2022/05/17 03:10:23;;;;;;;5.15;3.42;;;13.80;99.90;;;;;;4175137;28;20053;-74
2022/05/17 03:12:25;;;;;;;3.45;2.63;;;13.80;99.90;;;;;;4173508;28;20065;-74
2022/05/17 03:14:27;;;;;;;3.85;3.42;;;13.80;99.90;;;;;;4177105;28;20059;-73
2022/05/17 03:16:33;;;;;;;3.95;3.55;;;13.70;99.90;;;;;;4176622;28;20148;-74
2022/05/17 03:18:34;;;;;;;6.75;3.40;;;13.70;99.90;;;;;;4176412;28;20064;-74
2022/05/17 03:20:36;;;;;;;7.43;2.65;;;13.70;99.90;;;;;;4172758;28;20061;-75
2022/05/17 03:22:38;;;;;;;4.10;2.53;;;13.70;99.90;;;;;;4175715;28;20065;-73
2022/05/17 03:24:39;;;;;;;10.05;3.30;;;13.60;99.90;;;;;;4174205;28;20148;-73
2022/05/17 03:27:01;;;;;;;3.17;2.80;;;13.60;99.90;;;;;;4171547;28;20855;-73
2022/05/17 03:29:03;;;;;;;5.18;3.65;;;13.60;99.90;;;;;;4169459;28;20667;-73
2022/05/17 03:31:08;;;;;;;9.07;2.78;;;13.60;99.90;;;;;;4175996;28;20057;-74
2022/05/17 03:33:10;;;;;;;5.78;3.20;;;13.60;99.90;;;;;;4172820;28;20077;-74
2022/05/17 03:35:12;;;;;;;2.60;2.40;;;13.60;99.90;;;;;;4169295;28;20064;-74
2022/05/17 03:37:14;;;;;;;4.53;3.45;;;13.60;99.90;;;;;;4170074;28;20053;-74
2022/05/17 03:39:16;;;;;;;3.92;2.60;;;13.60;99.90;;;;;;4169080;28;20628;-72
2022/05/17 03:41:18;;;;;;;3.92;3.05;;;13.60;99.90;;;;;;4167286;28;21135;-74
2022/05/17 03:43:20;;;;;;;4.20;2.88;;;13.60;99.90;;;;;;4168561;28;20879;-73
2022/05/17 03:45:21;;;;;;;3.83;2.58;;;13.50;99.90;;;;;;4169444;28;20050;-76
2022/05/17 03:47:24;;;;;;;3.60;2.90;;;13.50;99.90;;;;;;4169546;28;20128;-73
2022/05/17 03:49:25;;;;;;;4.32;2.85;;;13.50;99.90;;;;;;4169280;28;20064;-76
2022/05/17 03:51:27;;;;;;;5.35;2.58;;;13.50;99.90;;;;;;4171650;28;20064;-74
2022/05/17 03:53:29;;;;;;;2.83;2.63;;;13.50;99.90;;;;;;4173768;28;20169;-75
2022/05/17 03:55:30;;;;;;;6.15;2.50;;;13.50;99.90;;;;;;4169237;28;20133;-74
2022/05/17 03:57:32;;;;;;;9.88;3.58;;;13.50;99.90;;;;;;4170950;28;20054;-74
2022/05/17 03:59:34;;;;;;;5.90;2.80;;;13.50;99.90;;;;;;4171296;28;20058;-74
2022/05/17 04:01:36;;;;;;;3.90;2.38;;;13.60;99.90;;;;;;4174570;28;20061;-75
2022/05/17 04:03:38;;;;;;;5.80;2.92;;;13.50;99.90;;;;;;4172383;28;21133;-74
2022/05/17 04:05:40;;;;;;;3.60;2.85;;;13.50;99.90;;;;;;4174847;28;20128;-73
2022/05/17 04:07:42;;;;;;;3.22;2.92;;;13.40;99.90;;;;;;4174464;28;20058;-74
2022/05/17 04:09:44;;;;;;;4.30;2.58;;;13.40;99.90;;;;;;4174507;28;20057;-74
2022/05/17 04:11:45;;;;;;;3.50;2.53;;;13.40;99.90;;;;;;4171313;28;20062;-74
2022/05/17 04:13:47;;;;;;;6.35;2.85;;;13.50;99.90;;;;;;4175284;28;20663;-74
2022/05/17 04:15:49;;;;;;;3.50;3.03;;;13.50;99.90;;;;;;4171977;28;20784;-74
2022/05/17 04:17:51;;;;;;;5.18;2.95;;;13.60;99.90;;;;;;4173198;28;20062;-74
2022/05/17 04:19:52;;;;;;;4.75;3.63;;;13.60;99.90;;;;;;4174033;28;20062;-74
2022/05/17 04:21:54;;;;;;;2.97;2.67;;;13.60;99.90;;;;;;4172959;28;20064;-75
2022/05/17 04:23:56;;;;;;;9.25;3.67;;;13.60;99.90;;;;;;4172214;28;20170;-74
2022/05/17 04:25:58;;;;;;;5.22;2.60;;;13.70;99.90;;;;;;4173320;28;20057;-74
2022/05/17 04:28:00;;;;;;;5.85;2.85;;;13.70;99.90;;;;;;4173857;28;21092;-73
2022/05/17 04:30:02;;;;;;;4.82;2.90;;;13.70;99.90;;;;;;4173341;28;20057;-74
2022/05/17 04:32:05;;;;;;;3.35;2.53;;;13.80;99.90;;;;;;4170701;28;20065;-74
2022/05/17 04:34:07;;;;;;;2.88;2.47;;;13.90;99.90;;;;;;4172116;28;20054;-74
2022/05/17 04:36:10;;;;;;;2.83;2.60;;;13.90;99.90;;;;;;4171739;28;20144;-74
2022/05/17 04:38:11;;;;;;;10.52;3.78;;;14.10;99.90;;;;;;4170937;28;20062;-74
2022/05/17 04:40:14;;;;;;;3.10;2.53;;;14.10;99.90;;;;;;4170013;28;20061;-74
2022/05/17 04:42:16;;;;;;;3.05;2.58;;;14.20;99.90;;;;;;4170086;28;20072;-74
2022/05/17 04:44:17;;;;;;;4.03;3.33;;;14.20;99.90;;;;;;4169473;28;20057;-74
2022/05/17 04:46:19;;;;;;;4.38;3.97;;;14.30;99.90;;;;;;4170169;28;20065;-74
2022/05/17 04:48:24;;;;;;;3.88;3.45;;;14.30;99.90;;;;;;4173218;28;20058;-75
2022/05/17 04:50:26;;;;;;;5.65;3.78;;;14.50;99.90;;;;;;4172135;28;20869;-74
2022/05/17 04:52:28;;;;;;;3.47;3.17;;;14.50;99.90;;;;;;4173882;28;20084;-74
2022/05/17 04:54:29;;;;;;;4.60;3.20;;;14.60;99.90;;;;;;4175797;28;20756;-76
2022/05/17 04:56:33;;;;;;;5.82;3.17;;;14.60;99.90;;;;;;4168684;28;20042;-74
2022/05/17 04:58:35;;;;;;;7.50;3.63;;;14.70;99.90;;;;;;4167429;28;20062;-74
2022/05/17 05:00:37;;;;;;;5.97;3.90;;;14.80;99.90;;;;;;4167420;28;21121;-73
2022/05/17 05:02:39;;;;;;;5.95;4.05;;;14.90;99.90;;;;;;4171360;28;20065;-74
2022/05/17 05:04:41;;;;;;;5.03;3.60;;;14.90;99.90;;;;;;4167301;28;20058;-74
2022/05/17 05:06:43;;;;;;;6.93;3.28;;;15.00;99.90;;;;;;4174700;28;20054;-74
2022/05/17 05:08:44;;;;;;;4.03;3.30;;;15.10;99.90;;;;;;4172314;28;20083;-73
2022/05/17 05:10:46;;;;;;;5.72;3.85;;;15.20;99.90;;;;;;4172050;28;20859;-73
2022/05/17 05:12:48;;;;;;;4.35;3.30;;;15.40;99.90;;;;;;4167943;28;20861;-73
2022/05/17 05:14:50;;;;;;;5.43;3.60;;;15.50;99.90;;;;;;4168747;28;20060;-73
2022/05/17 05:16:52;;;;;;;3.88;3.42;;;15.60;99.90;;;;;;4169646;28;20063;-72
2022/05/17 05:18:54;;;;;;;4.80;3.53;;;15.70;99.90;;;;;;4172473;28;20053;-74
2022/05/17 05:21:11;;;;;;;6.15;3.30;;;15.80;99.90;;;;;;4172147;28;20106;-72
2022/05/17 05:23:13;;;;;;;4.75;2.92;;;15.90;99.90;;;;;;4172390;28;20033;-74
2022/05/17 05:25:16;;;;;;;5.40;3.10;;;15.90;99.90;;;;;;4177519;28;20060;-74
2022/05/17 05:27:19;;;;;;;5.88;3.75;;;15.90;99.90;;;;;;4173935;28;20123;-75
2022/05/17 05:29:20;;;;;;;4.82;3.58;;;16.00;99.90;;;;;;4177446;28;20053;-76
2022/05/17 05:31:22;;;;;;;3.85;3.35;;;16.10;99.90;;;;;;4174094;28;20097;-76
2022/05/17 05:33:24;;;;;;;4.32;2.95;;;16.20;99.90;;;;;;4177347;28;20065;-76
2022/05/17 05:35:27;;;;;;;4.15;3.58;;;16.20;99.90;;;;;;4178142;28;20145;-76
2022/05/17 05:37:29;;;;;;;3.75;3.42;;;16.30;99.90;;;;;;4175533;28;20867;-76
2022/05/17 05:39:31;;;;;;;3.85;3.50;;;16.40;99.90;;;;;;4178035;28;20054;-76
2022/05/17 05:41:33;;;;;;;5.47;2.95;;;16.40;99.90;;;;;;4176581;28;20119;-76
2022/05/17 05:43:35;;;;;;;6.20;3.97;;;16.40;99.90;;;;;;4176764;28;20093;-76
2022/05/17 05:45:37;;;;;;;3.75;3.45;;;16.60;99.90;;;;;;4179474;28;20054;-75
2022/05/17 05:47:38;;;;;;;8.07;4.82;;;16.70;99.90;;;;;;4175781;28;20061;-76
2022/05/17 05:49:40;;;;;;;7.72;4.05;;;16.80;99.90;;;;;;4177759;28;20060;-75
2022/05/17 05:51:47;;;;;;;4.38;3.97;;;17.00;99.60;;;;;;4175510;28;20061;-76
2022/05/17 05:53:49;;;;;;;9.80;4.50;;;17.10;99.10;;;;;;4177536;28;20057;-74
2022/05/17 05:55:57;;;;;;;4.55;4.15;;;17.20;99.10;;;;;;4176906;28;20101;-74
2022/05/17 05:58:00;;;;;;;7.25;4.00;;;17.40;97.40;;;;;;4177790;28;20057;-77
2022/05/17 06:00:04;;;;;;;9.48;4.72;;;17.50;97.00;;;;;;4166906;28;20062;-78
2022/05/17 06:02:06;;;;;;;4.60;4.20;;;17.60;96.70;;;;;;4166386;28;20062;-77
2022/05/17 06:04:08;;;;;;;5.45;4.40;;;17.60;95.50;;;;;;4170789;28;20149;-74
2022/05/17 06:06:10;;;;;;;4.70;4.30;;;17.70;95.50;;;;;;4169310;28;20698;-74
2022/05/17 06:08:16;;;;;;;3.90;3.60;;;17.80;94.80;;;;;;4171168;28;20804;-77
2022/05/17 06:10:20;;;;;;;7.90;4.93;;;17.90;95.00;;;;;;4174331;28;20097;-76
2022/05/17 06:12:21;;;;;;;4.22;3.83;;;17.90;94.60;;;;;;4175918;28;20861;-76
2022/05/17 06:14:23;;;;;;;4.40;3.65;;;18.00;94.70;;;;;;4177552;28;20699;-75
2022/05/17 06:16:25;;;;;;;11.93;4.45;;;18.10;95.00;;;;;;4168832;28;20058;-75
2022/05/17 06:18:27;;;;;;;7.03;4.32;;;18.20;94.10;;;;;;4170444;28;20132;-76
2022/05/17 06:20:28;;;;;;;6.18;4.43;;;18.20;94.20;;;;;;4175815;28;20104;-76
2022/05/17 06:22:30;;;;;;;19.42;4.93;;;18.30;93.90;;;;;;4170536;28;20058;-77
2022/05/17 06:24:32;;;;;;;5.78;4.63;;;18.40;93.50;;;;;;4177073;28;20046;-77
2022/05/17 06:26:33;;;;;;;5.57;3.70;;;18.30;93.20;;;;;;4175802;28;20061;-76
2022/05/17 06:28:35;;;;;;;7.47;4.57;;;18.40;93.10;;;;;;4171398;28;20097;-76
2022/05/17 06:30:38;;;;;;;5.80;4.10;;;18.40;93.60;;;;;;4178376;28;20102;-76
2022/05/17 06:32:40;;;;;;;6.88;4.18;;;18.60;92.80;;;;;;4174196;28;20066;-76
2022/05/17 06:34:43;;;;;;;4.75;4.28;;;18.60;92.70;;;;;;4177157;28;20063;-76
2022/05/17 06:36:45;;;;;;;4.63;3.88;;;18.70;92.30;;;;;;4176357;28;20171;-76
2022/05/17 06:38:54;;;;;;;5.22;4.03;;;18.80;92.20;;;;;;4179056;28;20060;-76
2022/05/17 06:40:56;;;;;;;4.90;4.10;;;18.70;91.90;;;;;;4176670;28;20887;-76
2022/05/17 06:42:57;;;;;;;4.47;4.07;;;18.80;91.70;;;;;;4177458;28;20059;-77
2022/05/17 06:44:59;;;;;;;6.82;4.28;;;18.80;91.60;;;;;;4176851;28;20092;-76
2022/05/17 06:47:01;;;;;;;5.05;4.10;;;18.90;91.80;;;;;;4176220;28;20065;-78
2022/05/17 06:49:03;;;;;;;5.13;4.47;;;19.00;91.80;;;;;;4177488;28;20152;-78
2022/05/17 06:51:07;;;;;;;5.72;4.30;;;19.00;91.30;;;;;;4176164;28;20117;-78
2022/05/17 06:53:10;;;;;;;6.68;5.18;;;19.10;91.30;;;;;;4177233;28;20058;-78
2022/05/17 06:55:13;;;;;;;5.57;4.32;;;19.10;90.50;;;;;;4174164;28;20061;-77
2022/05/17 06:57:16;;;;;;;7.38;4.50;;;19.10;90.50;;;;;;4176502;28;20164;-77
2022/05/17 06:59:18;;;;;;;6.65;4.28;;;19.20;90.30;;;;;;4180150;28;20058;-77
2022/05/17 07:01:20;;;;;;;5.63;4.28;;;19.20;90.70;;;;;;4173551;28;20895;-76
2022/05/17 07:03:22;;;;;;;6.88;4.95;;;19.20;90.20;;;;;;4172732;28;20164;-77
2022/05/17 07:05:25;;;;;;;5.07;4.13;;;19.30;89.30;;;;;;4176807;28;20160;-78
2022/05/17 07:07:27;;;;;;;4.68;3.95;;;19.30;90.10;;;;;;4174585;28;20065;-77
2022/05/17 07:09:29;;;;;;;5.45;4.57;;;19.40;90.40;;;;;;4172425;28;20152;-77
2022/05/17 07:13:52;;;;;;;5.85;5.25;;;19.30;90.40;;;;;;4179114;28;20061;-77
2022/05/17 07:15:54;;;;;;;7.18;4.72;;;19.40;89.50;;;;;;4175857;28;20185;-78
2022/05/17 07:18:00;;;;;;;6.53;5.50;;;19.30;90.20;;;;;;4169710;28;20100;-78
2022/05/17 07:20:02;;;;;;;4.60;4.20;;;19.40;89.70;;;;;;4171967;28;20619;-78
2022/05/17 07:22:05;;;;;;;9.68;5.00;;;19.40;90.10;;;;;;4172897;28;20129;-78
2022/05/17 07:24:07;;;;;;;4.95;4.10;;;19.50;90.10;;;;;;4175745;28;20062;-77
2022/05/17 07:26:10;;;;;;;7.72;4.90;;;19.60;89.30;;;;;;4175616;28;20068;-77
2022/05/17 07:28:17;;;;;;;5.72;4.90;;;19.70;89.00;;;;;;4186748;22;20057;-74
2022/05/17 07:30:18;;;;;;;5.03;4.47;;;19.80;88.70;;;;;;4171267;28;20141;-74
2022/05/17 07:32:20;;;;;;;5.28;4.68;;;19.80;88.20;;;;;;4178380;28;20092;-74
2022/05/17 07:34:22;;;;;;;9.65;4.05;;;19.80;86.50;;;;;;4171663;28;20058;-73
2022/05/17 07:36:24;;;;;;;6.18;4.10;;;19.80;86.60;;;;;;4180828;28;20065;-74
2022/05/17 07:38:26;;;;;;;5.45;4.10;;;19.80;84.90;;;;;;4176473;28;20777;-74
2022/05/17 07:40:27;;;;;;;4.72;4.25;;;19.80;84.90;;;;;;4175003;28;20064;-74
2022/05/17 07:42:29;;;;;;;6.85;4.80;;;19.70;85.10;;;;;;4180633;28;20807;-74
2022/05/17 07:44:31;;;;;;;11.02;4.40;;;19.60;86.50;;;;;;4177465;28;20057;-74
2022/05/17 07:46:32;;;;;;;3.60;3.10;;;19.70;85.20;;;;;;4169381;28;20057;-74
2022/05/17 07:48:35;;;;;;;4.60;4.20;;;19.80;84.20;;;;;;4176961;28;20064;-74
2022/05/17 07:50:37;;;;;;;4.78;4.25;;;19.90;85.00;;;;;;4170794;28;20097;-74
2022/05/17 07:52:39;;;;;;;5.03;4.38;;;20.00;84.90;;;;;;4172768;28;20065;-74
2022/05/17 07:54:43;;;;;;;7.47;4.25;;;20.10;85.40;;;;;;4175254;28;20093;-73
2022/05/17 07:56:44;;;;;;;6.93;4.63;;;20.20;85.40;;;;;;4173428;28;20058;-74
2022/05/17 07:58:46;;;;;;;4.57;4.05;;;20.20;84.30;;;;;;4174710;28;20065;-74
2022/05/17 08:00:47;;;;;;;4.63;3.78;;;20.10;84.40;;;;;;4176608;28;20886;-74
2022/05/17 08:02:49;;;;;;;6.10;4.45;;;20.10;84.30;;;;;;4174600;28;20058;-74
2022/05/17 08:04:51;;;;;;;7.43;4.47;;;20.10;83.00;;;;;;4177344;28;20057;-74
2022/05/17 08:06:56;;;;;;;7.80;4.85;;;20.20;82.10;;;;;;4173957;28;20058;-74
2022/05/17 08:08:57;;;;;;;4.90;4.45;;;20.20;83.90;;;;;;4174446;28;20065;-74
2022/05/17 08:11:00;;;;;;;6.88;4.45;;;20.20;83.70;;;;;;4173535;28;20183;-74
2022/05/17 08:13:02;;;;;;;7.85;3.97;;;20.30;84.00;;;;;;4174949;28;20049;-74
2022/05/17 08:15:04;;;;;;;4.90;3.72;;;20.30;83.20;;;;;;4173029;28;20053;-74
2022/05/17 08:17:08;;;;;;;5.13;3.58;;;20.40;82.50;;;;;;4173990;28;20061;-73
2022/05/17 08:19:10;;;;;;;6.38;3.60;;;20.50;81.50;;;;;;4173239;28;20870;-74
2022/05/17 08:21:12;;;;;;;7.72;3.33;;;20.50;81.50;;;;;;4172029;28;20080;-74
2022/05/17 08:23:14;;;;;;;4.38;3.00;;;20.50;78.90;;;;;;4177695;28;20058;-74
2022/05/17 08:27:40;;;;;;;7.68;4.00;;;20.60;80.70;;;;;;4172945;28;20065;-74
2022/05/17 08:29:42;;;;;;;4.60;2.92;;;20.60;79.40;;;;;;4172395;28;20065;-74
2022/05/17 08:33:14;;;;;;;4.43;3.17;;;20.50;78.90;;;;;;4168645;28;20853;-73
2022/05/17 08:34:08;;;;;;;3.70;3.40;;;20.60;79.80;;;;;;4167004;28;20068;-74
2022/05/17 08:36:11;;;;;;;4.43;3.10;;;20.80;78.90;;;;;;4168267;28;20057;-74
2022/05/17 08:38:22;;;;;;;7.03;4.03;;;20.90;78.60;;;;;;4178108;28;20057;-73
2022/05/17 08:40:24;;;;;;;5.78;3.20;;;21.10;78.90;;;;;;4180708;28;20165;-73
2022/05/17 08:42:43;;;;;;;6.40;4.20;;;21.10;78.20;;;;;;4170900;28;20109;-75
2022/05/17 08:44:50;;;;;;;3.80;3.47;;;21.20;77.70;;;;;;4166206;28;20069;-74
2022/05/17 08:47:12;;;;;;;5.15;3.30;;;21.20;77.90;;;;;;4165543;28;20876;-74
2022/05/17 08:49:53;;;;;;;4.55;3.60;;;21.40;77.90;;;;;;4175427;28;20149;-74
2022/05/17 08:52:09;;;;;;;6.00;3.38;;;21.50;75.80;;;;;;4170354;28;20049;-73
2022/05/17 08:54:15;;;;;;;4.28;3.22;;;21.60;75.80;;;;;;4169307;28;20185;-74
2022/05/17 08:56:17;;;;;;;2.95;2.30;;;21.60;74.70;;;;;;4173642;28;20165;-74
2022/05/17 08:58:28;;;;;;;10.18;3.50;;;21.60;74.10;;;;;;4176567;28;21125;-75
2022/05/17 09:00:42;;;;;;;6.05;3.03;;;21.50;73.10;;;;;;4173056;28;20067;-74
2022/05/17 09:02:57;;;;;;;3.50;3.20;;;21.50;73.20;;;;;;4170425;28;20620;-74
2022/05/17 09:05:28;;;;;;;3.72;3.10;;;21.60;71.80;;;;;;4171437;28;21156;-74
2022/05/17 09:07:47;;;;;;;2.90;2.60;;;21.40;71.70;;;;;;4161658;28;20053;-73
2022/05/17 09:10:12;;;;;;;5.10;2.88;;;21.50;73.50;;;;;;4171113;28;20061;-73
2022/05/17 09:12:51;;;;;;;3.63;2.70;;;21.70;71.70;;;;;;4170047;28;20115;-74
2022/05/17 09:14:58;;;;;;;4.63;3.15;;;21.90;71.20;;;;;;4173847;28;20054;-74
2022/05/17 09:17:21;;;;;;;3.65;2.30;;;22.10;70.40;;;;;;4172994;28;20176;-74
2022/05/17 09:19:23;;;;;;;4.35;2.55;;;22.20;70.10;;;;;;4172625;28;20058;-74
2022/05/17 09:21:31;;;;;;;2.40;2.20;;;22.30;69.40;;;;;;4173214;28;20058;-73
2022/05/17 09:23:33;;;;;;;7.13;4.10;;;22.30;69.40;;;;;;4171995;28;20057;-73
2022/05/17 09:25:56;;;;;;;3.25;2.20;;;22.30;69.30;;;;;;4172226;28;20686;-74
2022/05/17 09:28:02;;;;;;;2.40;1.98;;;22.40;65.80;;;;;;4174159;28;20065;-74
2022/05/17 09:30:11;;;;;;;3.63;2.20;;;22.30;68.20;;;;;;4175552;28;20058;-73
2022/05/17 09:32:24;;;;;;;4.32;2.58;;;22.30;66.80;;;;;;4174968;28;20064;-74
2022/05/17 09:34:44;;;;;;;3.05;2.22;;;22.30;67.40;;;;;;4172754;28;20061;-74
2022/05/17 09:36:52;;;;;;;4.25;2.30;;;22.50;66.90;;;;;;4171666;28;20080;-74
2022/05/17 09:38:54;;;;;;;3.47;2.45;;;22.70;66.90;;;;;;4170526;28;20068;-73
2022/05/17 09:40:57;;;;;;;4.40;1.95;;;22.70;64.40;;;;;;4174280;28;20124;-74
2022/05/17 09:43:04;;;;;;;2.95;2.10;;;22.70;64.30;;;;;;4171276;28;20074;-74
2022/05/17 09:45:14;;;;;;;5.60;2.10;;;22.70;65.70;;;;;;4170450;28;20153;-74
2022/05/17 09:47:30;;;;;;;6.05;3.17;;;22.70;65.10;;;;;;4170179;28;20057;-73
2022/05/17 09:54:34;;;;;;;2.20;2.00;;;22.60;66.40;;;;;;4177487;28;20147;-73
2022/05/17 09:56:35;;;;;;;3.30;2.40;;;22.70;66.00;;;;;;4166985;28;20148;-74
2022/05/17 09:58:40;;;;;;;5.25;1.83;;;22.80;65.00;;;;;;4168634;28;20057;-74
2022/05/17 10:00:42;;;;;;;4.85;2.53;;;22.80;64.50;;;;;;4172736;28;20173;-74
2022/05/17 10:02:54;;;;;;;3.78;2.03;;;22.90;65.20;;;;;;4168479;28;20064;-73
2022/05/17 10:04:56;;;;;;;5.38;2.38;;;23.00;62.60;;;;;;4167478;28;20058;-74
2022/05/17 10:06:58;;;;;;;5.85;2.15;;;23.10;61.30;;;;;;4165620;28;20053;-74
2022/05/17 10:09:04;;;;;;;3.33;2.03;;;23.10;62.10;;;;;;4169650;28;20061;-74
2022/05/17 10:11:17;;;;;;;4.13;1.80;;;23.20;61.90;;;;;;4168593;28;20054;-74
2022/05/17 10:13:32;;;;;;;8.13;2.42;;;23.30;62.20;;;;;;4169472;28;20066;-74
2022/05/17 10:15:37;;;;;;;3.08;1.77;;;23.30;63.50;;;;;;4165602;28;20144;-74
2022/05/17 10:17:43;;;;;;;3.42;1.85;;;22.80;61.30;;;;;;4167395;28;20774;-76
2022/05/17 10:19:56;;;;;;;1.50;1.40;;;22.20;61.60;;;;;;4168377;28;20104;-73
2022/05/17 10:22:16;;;;;;;4.75;2.08;;;22.00;64.10;;;;;;4176020;28;20772;-73
2022/05/17 10:24:49;;;;;;;2.35;1.52;;;22.00;65.20;;;;;;4178096;28;20128;-73
2022/05/17 10:27:18;;;;;;;4.60;2.42;;;21.90;64.00;;;;;;4172715;28;20058;-73
2022/05/17 10:29:26;;;;;;;3.15;2.20;;;21.80;64.40;;;;;;4170337;28;20145;-73
2022/05/17 10:31:44;;;;;;;2.75;2.10;;;21.80;64.50;;;;;;4172552;28;20062;-74
2022/05/17 10:33:58;;;;;;;3.15;2.08;;;21.70;62.90;;;;;;4167989;28;20053;-74
2022/05/17 10:36:05;;;;;;;3.05;2.08;;;21.70;63.10;;;;;;4176373;28;20144;-73
2022/05/17 10:38:11;;;;;;;1.60;1.27;;;21.80;64.40;;;;;;4170314;28;20057;-73
2022/05/17 10:40:15;;;;;;;1.85;1.60;;;21.80;64.40;;;;;;4171546;28;20062;-73
2022/05/17 10:42:18;;;;;;;2.08;1.83;;;21.80;64.20;;;;;;4165849;28;20928;-74
2022/05/17 10:44:21;;;;;;;3.42;1.80;;;21.80;65.20;;;;;;4170074;28;21039;-74
2022/05/17 10:46:29;;;;;;;4.30;2.33;;;21.80;65.60;;;;;;4171765;28;20064;-73
2022/05/17 10:48:55;;;;;;;3.25;2.45;;;21.80;67.10;;;;;;4173705;28;20073;-74
2022/05/17 10:51:25;;;;;;;3.97;1.85;;;21.90;67.00;;;;;;4175065;28;20062;-73
2022/05/17 10:53:33;;;;;;;4.30;2.25;;;22.00;66.00;;;;;;4178205;28;20096;-73
2022/05/17 10:55:50;;;;;;;3.60;2.47;;;22.20;66.20;;;;;;4175924;28;20077;-73
2022/05/17 10:58:03;;;;;;;2.88;1.88;;;22.40;65.80;;;;;;4174594;28;20057;-73
2022/05/17 11:00:14;;;;;;;2.92;2.17;;;22.40;65.10;;;;;;4175902;28;20123;-73
2022/05/17 11:02:34;;;;;;;;;;;22.30;65.50;;;;;;4176048;28;20128;-73
2022/05/17 11:04:57;;;;;;;2.47;2.08;;;22.20;64.30;;;;;;4172747;28;20689;-73